Flight Track Log - Related Links

Times and Time Zones

All times are in EDT time to prevent confusion due to time zone crossing. See the N59CW flight status page for this flight to view local times or setup timezone preferences in your user account.

Time Position Orientation Groundspeed Altitude Reporting Facility
EDT Latitude Longitude Course Direction KTS MPH feet Rate Location/Type
Thu 07:52:03 AM 27.9167 -82.6833 360° North 83 96 400  Level Tampa TRACON
Thu 07:52:39 AM 27.9333 -82.6833 360° North 88 101 800 688 Climbing Tampa TRACON
Thu 07:53:39 AM 27.9500 -82.7000 319° Northwest 89 102 1,500 700 Climbing Tampa TRACON
Thu 07:54:39 AM 27.9833 -82.7000 360° North 91 105 2,200 650 Climbing Tampa TRACON
Thu 07:55:39 AM 28.0000 -82.7000 360° North 91 105 2,800 400 Climbing Tampa TRACON
Thu 07:56:39 AM 28.0333 -82.7167 336° Northwest 100 115 3,000 100 Climbing Tampa TRACON
Thu 07:57:39 AM 28.0667 -82.7167 360° North 140 161 3,000  Level Tampa TRACON
Thu 07:58:39 AM 28.1167 -82.7167 360° North 134 154 3,000  Level Tampa TRACON
Thu 07:59:40 AM 28.1500 -82.7167 360° North 131 151 3,000  Level Tampa TRACON
Thu 08:00:39 AM 28.1833 -82.7000 24° Northeast 130 150 3,000 -50 Level Tampa TRACON
Thu 08:01:40 AM 28.2167 -82.7000 360° North 139 160 2,900  Descending Tampa TRACON
Thu 08:02:40 AM 28.2667 -82.7000 360° North 132 152 3,000 50 Climbing Tampa TRACON
Thu 08:03:40 AM 28.3000 -82.7000 360° North 134 154 3,000  Level Tampa TRACON
Thu 08:04:40 AM 28.3333 -82.7000 360° North 133 153 3,000  Level Tampa TRACON
Thu 08:05:40 AM 28.3667 -82.6833 24° Northeast 128 147 3,000 -200 Level Tampa TRACON
Thu 08:06:40 AM 28.4000 -82.6833 360° North 133 153 2,600 -350 Descending Tampa TRACON
Thu 08:07:40 AM 28.4333 -82.6833 360° North 133 153 2,300 -300 Descending Tampa TRACON
Thu 08:08:40 AM 28.4667 -82.6833 360° North 126 145 2,000 -250 Descending Tampa TRACON
Thu 08:09:40 AM 28.4833 -82.6333 69° East 147 169 1,800 -50 Descending Tampa TRACON
Thu 08:10:40 AM 28.4833 -82.6000 90° East 135 155 1,900 -100 Climbing Tampa TRACON
Thu 08:11:40 AM 28.4833 -82.5500 90° East 120 138 1,600 -450 Descending Tampa TRACON
Thu 08:12:40 AM 28.4833 -82.5167 90° East 116 133 1,000 -600 Descending Tampa TRACON
Thu 08:13:40 AM 28.4833 -82.4833 90° East 111 128 400 -130 Descending Tampa TRACON
Thu 08:14:58 AM 28.4667 -82.4500 120° Southeast 89 102 700 331 Climbing Tampa TRACON
Thu 08:15:47 AM 28.4500 -82.4333 139° Southeast 93 107 1,100 632 Climbing Tampa TRACON
Thu 08:16:52 AM 28.4167 -82.4333 180° South 97 112 1,900 474 Climbing Tampa TRACON
Thu 08:17:41 AM 28.4000 -82.4333 180° South 105 121 2,000 55 Climbing Tampa TRACON
Thu 08:18:41 AM 28.4000 -82.4667 270° West 108 124 2,000  Level Tampa TRACON
Thu 08:19:47 AM 28.4000 -82.5167 270° West 108 124 2,000  Level Tampa TRACON
Thu 08:20:47 AM 28.4000 -82.5333 270° West 110 127 2,000  Level Tampa TRACON
Thu 08:21:47 AM 28.4000 -82.5667 270° West 107 123 2,000  Level Tampa TRACON
Thu 08:22:41 AM 28.4000 -82.6000 270° West 106 122 2,000  Level Tampa TRACON
Thu 08:23:47 AM 28.4000 -82.6333 270° West 100 115 2,000 48 Level Tampa TRACON
Thu 08:24:47 AM 28.4333 -82.6500 336° Northwest 117 135 2,100  Climbing Tampa TRACON
Thu 08:25:47 AM 28.4667 -82.6500 360° North 135 155 2,000 -53 Descending Tampa TRACON
Thu 08:26:41 AM 28.4667 -82.6167 90° East 145 167 2,000 -53 Level Tampa TRACON
Thu 08:27:41 AM 28.4833 -82.5667 69° East 150 173 1,900 -450 Descending Tampa TRACON
Thu 08:28:41 AM 28.4833 -82.5333 90° East 125 144 1,100 -650 Descending Tampa TRACON
Thu 08:29:41 AM 28.4833 -82.5000 90° East 105 121 600 -300 Descending Tampa TRACON
Thu 08:30:41 AM 28.4833 -82.4667 90° East 101 116 500 -33 Descending Tampa TRACON
Thu 08:32:41 AM 28.4833 -82.4667 41° Northeast 101 116 500  Level Tampa TRACON

Login

Don't have an account? Register now (free) for customized features, flight alerts, and more!